createdAt,value
2023-04-29T00:00:13.844Z,3.20
2023-04-29T00:01:16.026Z,2.70
2023-04-29T00:02:18.239Z,2.80
2023-04-29T00:03:20.481Z,2.90
2023-04-29T00:04:23.059Z,2.82
2023-04-29T00:05:25.790Z,2.50
2023-04-29T00:06:28.242Z,1.80
2023-04-29T00:07:31.231Z,3.36
2023-04-29T00:08:33.329Z,3.40
2023-04-29T00:09:35.501Z,3.00
2023-04-29T00:10:37.982Z,3.20
2023-04-29T00:11:40.262Z,2.70
2023-04-29T00:12:42.833Z,3.00
2023-04-29T00:13:44.892Z,2.80
2023-04-29T00:14:47.310Z,3.20
2023-04-29T00:15:49.866Z,3.40
2023-04-29T00:16:52.127Z,2.20
2023-04-29T00:17:54.364Z,1.80
2023-04-29T00:18:56.757Z,1.70
2023-04-29T00:19:58.915Z,2.80
2023-04-29T00:21:01.511Z,2.30
2023-04-29T00:22:03.630Z,2.80
2023-04-29T00:23:06.064Z,2.70
2023-04-29T00:24:08.497Z,2.50
2023-04-29T00:25:10.880Z,3.00
2023-04-29T00:26:14.010Z,2.90
2023-04-29T00:27:18.143Z,2.50
2023-04-29T00:28:20.542Z,2.30
2023-04-29T00:29:22.894Z,2.60
2023-04-29T00:30:25.060Z,3.40
2023-04-29T00:31:27.818Z,3.00
2023-04-29T00:32:31.283Z,2.91
2023-04-29T00:33:33.552Z,2.80
2023-04-29T00:34:35.665Z,2.00
2023-04-29T00:35:37.848Z,1.33
2023-04-29T00:36:40.209Z,3.00
2023-04-29T00:37:42.485Z,2.10
2023-04-29T00:38:44.683Z,2.80
2023-04-29T00:39:46.961Z,2.30
2023-04-29T00:40:49.447Z,2.20
2023-04-29T00:41:52.135Z,2.50
2023-04-29T00:42:54.181Z,2.20
2023-04-29T00:43:56.466Z,1.90
2023-04-29T00:44:58.868Z,2.20
2023-04-29T00:46:00.978Z,3.50
2023-04-29T00:47:03.682Z,3.00
2023-04-29T00:48:06.636Z,2.90
2023-04-29T00:49:10.398Z,3.00
2023-04-29T00:50:13.231Z,2.30
2023-04-29T00:51:16.687Z,2.90
2023-04-29T00:52:19.402Z,2.50
2023-04-29T00:53:21.546Z,3.00
2023-04-29T00:54:24.245Z,3.00
2023-04-29T00:55:26.996Z,2.40
2023-04-29T00:56:30.110Z,2.36
2023-04-29T00:57:34.310Z,2.00
2023-04-29T00:58:36.601Z,3.10
2023-04-29T00:59:38.874Z,2.50
2023-04-29T01:00:41.122Z,3.00
2023-04-29T01:01:43.672Z,3.20
2023-04-29T01:02:48.192Z,2.70
2023-04-29T01:03:51.224Z,2.70
2023-04-29T01:04:53.946Z,3.10
2023-04-29T01:07:36.245Z,3.00
2023-04-29T01:08:59.816Z,2.40
2023-04-29T01:10:19.920Z,2.90
2023-04-29T01:11:26.579Z,2.30
2023-04-29T01:12:35.279Z,2.00
2023-04-29T01:13:53.251Z,2.80
2023-04-29T01:16:38.345Z,2.90
2023-04-29T01:18:00.892Z,2.50
2023-04-29T01:19:06.827Z,3.00
2023-04-29T01:20:10.864Z,2.40
2023-04-29T01:21:13.190Z,1.91
2023-04-29T01:22:15.574Z,3.10
2023-04-29T01:23:18.422Z,2.90
2023-04-29T01:24:21.042Z,2.36
2023-04-29T01:25:25.476Z,2.50
2023-04-29T01:29:22.696Z,3.20
2023-04-29T01:30:47.473Z,2.70
2023-04-29T01:33:31.143Z,3.00
2023-04-29T01:36:14.570Z,2.70
2023-04-29T01:37:20.763Z,3.10
2023-04-29T01:38:37.400Z,2.80
2023-04-29T01:40:06.475Z,2.90
2023-04-29T01:43:58.772Z,3.10
2023-04-29T01:45:05.663Z,2.60
2023-04-29T01:46:13.132Z,2.20
2023-04-29T01:47:16.312Z,2.40
2023-04-29T01:48:20.723Z,2.30
2023-04-29T01:49:26.856Z,2.60
2023-04-29T01:50:29.419Z,2.90
2023-04-29T01:51:33.447Z,3.20
2023-04-29T01:52:36.305Z,2.90
2023-04-29T01:53:39.082Z,2.80
2023-04-29T01:54:41.156Z,3.60
2023-04-29T01:55:43.541Z,2.90
2023-04-29T01:56:50.649Z,2.00
2023-04-29T01:59:16.774Z,1.40
2023-04-29T02:00:29.557Z,2.30
2023-04-29T02:01:32.093Z,1.90
2023-04-29T02:02:34.591Z,2.60
2023-04-29T02:03:38.878Z,2.30
2023-04-29T02:04:43.527Z,2.90
2023-04-29T02:05:45.898Z,2.50
2023-04-29T02:06:48.166Z,2.90
2023-04-29T02:07:52.182Z,2.40
2023-04-29T02:08:55.407Z,2.70
2023-04-29T02:09:58.669Z,2.50
2023-04-29T02:11:01.005Z,2.90
2023-04-29T02:12:10.646Z,2.60
2023-04-29T02:13:12.737Z,2.70
2023-04-29T02:14:15.206Z,2.40
2023-04-29T02:15:18.412Z,2.80
2023-04-29T02:16:21.062Z,2.30
2023-04-29T02:17:25.209Z,3.00
2023-04-29T02:18:27.755Z,2.40
2023-04-29T02:19:30.026Z,2.80
2023-04-29T02:20:32.197Z,3.00
2023-04-29T02:21:34.446Z,2.80
2023-04-29T02:22:36.642Z,2.90
2023-04-29T02:23:39.532Z,1.80
2023-04-29T02:24:41.778Z,3.60
2023-04-29T02:25:44.025Z,2.20
2023-04-29T02:26:46.553Z,2.80
2023-04-29T02:27:48.718Z,3.20
2023-04-29T02:28:51.593Z,2.40
2023-04-29T02:29:53.940Z,3.30
2023-04-29T02:30:57.074Z,3.91
2023-04-29T02:31:59.270Z,3.40
2023-04-29T02:33:01.567Z,2.70
2023-04-29T02:34:03.649Z,3.90
2023-04-29T02:35:06.613Z,3.50
2023-04-29T02:36:09.918Z,3.60
2023-04-29T02:37:12.687Z,3.00
2023-04-29T02:38:15.709Z,3.20
2023-04-29T02:39:17.817Z,2.90
2023-04-29T02:40:21.000Z,2.90
2023-04-29T02:41:23.278Z,3.20
2023-04-29T02:42:25.921Z,3.20
2023-04-29T02:43:28.075Z,3.40
2023-04-29T02:44:30.342Z,3.40
2023-04-29T02:45:32.708Z,2.50
2023-04-29T02:46:34.911Z,2.90
2023-04-29T02:47:37.738Z,2.70
2023-04-29T02:48:40.056Z,2.55
2023-04-29T02:49:42.208Z,3.60
2023-04-29T02:50:44.461Z,3.30
2023-04-29T02:51:46.841Z,2.60
2023-04-29T02:52:49.135Z,2.60
2023-04-29T02:53:51.649Z,2.80
2023-04-29T02:54:53.817Z,3.10
2023-04-29T02:55:56.128Z,3.80
2023-04-29T02:56:58.727Z,3.60
2023-04-29T02:58:01.459Z,3.40
2023-04-29T02:59:03.453Z,2.60
2023-04-29T03:00:07.611Z,2.20
2023-04-29T03:01:10.065Z,2.20
2023-04-29T03:02:12.471Z,2.00
2023-04-29T03:03:15.574Z,2.09
2023-04-29T03:04:18.198Z,3.10
2023-04-29T03:05:20.546Z,2.40
2023-04-29T03:06:22.823Z,2.30
2023-04-29T03:07:26.050Z,2.40
2023-04-29T03:08:28.725Z,2.70
2023-04-29T03:09:31.315Z,2.70
2023-04-29T03:10:34.039Z,3.40
2023-04-29T03:11:37.966Z,3.00
2023-04-29T03:12:41.326Z,2.09
2023-04-29T03:13:44.730Z,2.50
2023-04-29T03:14:47.193Z,2.40
2023-04-29T03:15:49.478Z,2.80
2023-04-29T03:16:51.693Z,3.40
2023-04-29T03:17:54.049Z,2.40
2023-04-29T03:18:57.095Z,2.70
2023-04-29T03:21:01.120Z,2.56
2023-04-29T03:22:03.545Z,2.80
2023-04-29T03:23:06.491Z,2.00
2023-04-29T03:24:09.255Z,2.10
2023-04-29T03:25:12.778Z,3.30
2023-04-29T03:26:15.167Z,2.55
2023-04-29T03:27:17.998Z,2.80
2023-04-29T03:28:20.414Z,2.27
2023-04-29T03:29:23.333Z,2.64
2023-04-29T03:30:25.648Z,2.90
2023-04-29T03:31:29.779Z,2.50
2023-04-29T03:32:32.709Z,2.00
2023-04-29T03:33:35.019Z,1.91
2023-04-29T03:34:37.300Z,1.70
2023-04-29T03:35:44.643Z,2.20
2023-04-29T03:38:16.744Z,3.10
2023-04-29T03:39:19.626Z,2.00
2023-04-29T03:40:21.920Z,3.10
2023-04-29T03:41:24.626Z,2.10
2023-04-29T03:42:27.194Z,2.30
2023-04-29T03:43:29.469Z,2.90
2023-04-29T03:44:32.436Z,2.30
2023-04-29T03:45:35.003Z,2.70
2023-04-29T03:46:37.812Z,3.20
2023-04-29T03:47:40.753Z,2.80
2023-04-29T03:48:43.052Z,2.36
2023-04-29T03:49:45.679Z,1.90
2023-04-29T03:50:48.005Z,2.50
2023-04-29T03:51:50.393Z,3.20
2023-04-29T03:52:53.676Z,2.50
2023-04-29T03:53:55.817Z,2.90
2023-04-29T03:54:59.988Z,3.80
2023-04-29T03:57:05.564Z,3.40
2023-04-29T03:58:09.774Z,3.20
2023-04-29T03:59:12.005Z,3.27
2023-04-29T04:00:15.942Z,3.20
2023-04-29T04:01:22.821Z,3.00
2023-04-29T04:02:25.458Z,3.90
2023-04-29T04:03:28.170Z,3.90
2023-04-29T04:04:31.665Z,3.30
2023-04-29T04:05:34.347Z,4.18
2023-04-29T04:06:38.431Z,3.60
2023-04-29T04:07:40.712Z,3.20
2023-04-29T04:09:01.648Z,4.90
2023-04-29T04:10:06.174Z,3.10
2023-04-29T04:11:08.325Z,4.80
2023-04-29T04:12:12.204Z,3.10
2023-04-29T04:13:16.447Z,3.00
2023-04-29T04:14:18.783Z,3.90
2023-04-29T04:15:22.077Z,2.70
2023-04-29T04:16:24.879Z,3.70
2023-04-29T04:17:27.543Z,3.30
2023-04-29T04:18:29.761Z,2.90
2023-04-29T04:19:32.109Z,3.10
2023-04-29T04:20:38.478Z,3.50
2023-04-29T04:21:41.322Z,2.70
2023-04-29T04:22:45.283Z,2.90
2023-04-29T04:23:58.396Z,2.80
2023-04-29T04:25:00.868Z,3.10
2023-04-29T04:26:03.142Z,2.80
2023-04-29T04:27:20.841Z,2.70
2023-04-29T04:28:24.448Z,2.30
2023-04-29T04:29:33.178Z,3.10
2023-04-29T04:30:37.268Z,3.10
2023-04-29T04:31:40.870Z,3.30
2023-04-29T04:32:43.515Z,3.60
2023-04-29T04:33:45.741Z,2.50
2023-04-29T04:34:48.800Z,2.30
2023-04-29T04:35:51.098Z,2.90
2023-04-29T04:36:53.265Z,3.30
2023-04-29T04:37:57.813Z,2.40
2023-04-29T04:39:00.446Z,3.00
2023-04-29T04:40:03.039Z,2.50
2023-04-29T04:41:09.894Z,3.30
2023-04-29T04:42:14.419Z,3.30
2023-04-29T04:43:17.161Z,3.00
2023-04-29T04:44:19.336Z,1.90
2023-04-29T04:45:32.405Z,3.40
2023-04-29T04:46:35.166Z,3.70
2023-04-29T04:47:40.531Z,3.40
2023-04-29T04:48:44.654Z,2.90
2023-04-29T04:49:48.323Z,2.70
2023-04-29T04:50:51.126Z,1.70
2023-04-29T04:51:53.984Z,2.70
2023-04-29T04:52:56.885Z,4.00
2023-04-29T04:54:01.065Z,3.90
2023-04-29T04:55:05.132Z,4.40
2023-04-29T04:56:09.549Z,2.50
2023-04-29T04:57:12.464Z,3.82
2023-04-29T04:58:14.718Z,3.90
2023-04-29T04:59:17.374Z,4.10
2023-04-29T05:00:19.784Z,3.00
2023-04-29T05:01:22.252Z,3.40
2023-04-29T05:02:25.085Z,3.10
2023-04-29T05:03:28.087Z,3.70
2023-04-29T05:04:30.648Z,3.90
2023-04-29T05:05:33.524Z,2.80
2023-04-29T05:06:35.721Z,3.60
2023-04-29T05:07:37.906Z,2.80
2023-04-29T05:08:40.569Z,3.20
2023-04-29T05:09:43.760Z,3.00
2023-04-29T05:10:45.946Z,3.00
2023-04-29T05:11:48.499Z,2.10
2023-04-29T05:12:52.937Z,2.10
2023-04-29T05:13:55.581Z,2.90
2023-04-29T05:14:57.836Z,2.00
2023-04-29T05:16:06.512Z,1.80
2023-04-29T05:17:09.371Z,1.80
2023-04-29T05:18:13.206Z,1.80
2023-04-29T05:19:16.215Z,1.90
2023-04-29T05:20:18.860Z,1.30
2023-04-29T05:21:21.449Z,1.10
2023-04-29T05:22:24.314Z,1.90
2023-04-29T05:23:26.599Z,1.18
2023-04-29T05:24:28.920Z,1.30
2023-04-29T05:25:31.614Z,1.40
2023-04-29T05:26:34.507Z,1.82
2023-04-29T05:27:37.977Z,0.82
2023-04-29T05:28:41.286Z,1.30
2023-04-29T05:30:55.187Z,1.80
2023-04-29T05:31:57.540Z,0.70
2023-04-29T05:32:59.673Z,1.00
2023-04-29T05:34:02.922Z,1.50
2023-04-29T05:35:07.534Z,0.70
2023-04-29T05:36:11.216Z,1.10
2023-04-29T05:37:13.524Z,0.70
2023-04-29T05:38:18.618Z,1.10
2023-04-29T05:39:26.195Z,1.10
2023-04-29T05:40:30.359Z,0.60
2023-04-29T05:41:34.913Z,1.40
2023-04-29T05:42:44.608Z,0.70
2023-04-29T05:43:47.275Z,0.70
2023-04-29T05:44:50.959Z,0.70
2023-04-29T05:45:53.270Z,1.09
2023-04-29T05:46:56.030Z,1.40
2023-04-29T05:47:58.793Z,1.00
2023-04-29T05:49:01.180Z,0.55
2023-04-29T05:50:03.959Z,0.50
2023-04-29T05:51:06.707Z,1.20
2023-04-29T05:52:09.064Z,0.70
2023-04-29T05:53:13.273Z,0.70
2023-04-29T05:54:17.179Z,1.10
2023-04-29T05:55:21.181Z,0.70
2023-04-29T05:56:24.606Z,1.10
2023-04-29T05:57:27.172Z,0.60
2023-04-29T05:58:29.361Z,0.70
2023-04-29T05:59:32.388Z,0.50
2023-04-29T06:00:35.938Z,1.80
2023-04-29T06:01:40.161Z,0.90
2023-04-29T06:02:57.513Z,0.70
2023-04-29T06:03:49.560Z,0.70
2023-04-29T06:04:59.826Z,0.90
2023-04-29T06:06:16.357Z,0.40
2023-04-29T06:07:24.063Z,0.60
2023-04-29T06:08:29.756Z,0.00
2023-04-29T06:09:39.934Z,0.60
2023-04-29T06:10:42.269Z,0.20
2023-04-29T06:11:45.976Z,1.10
2023-04-29T06:12:48.720Z,1.09
2023-04-29T06:13:51.075Z,0.27
2023-04-29T06:14:53.307Z,0.90
2023-04-29T06:15:56.134Z,0.80
2023-04-29T06:16:59.428Z,0.50
2023-04-29T06:18:01.889Z,0.30
2023-04-29T06:19:04.636Z,0.90
2023-04-29T06:20:09.049Z,0.70
2023-04-29T06:21:14.540Z,1.70
2023-04-29T06:22:17.787Z,0.60
2023-04-29T06:23:22.343Z,1.20
2023-04-29T06:24:25.061Z,1.00
2023-04-29T06:25:28.643Z,0.70
2023-04-29T06:26:31.479Z,1.70
2023-04-29T06:27:34.490Z,2.40
2023-04-29T06:28:37.775Z,2.64
2023-04-29T06:29:40.702Z,2.80
2023-04-29T06:30:43.316Z,1.70
2023-04-29T06:33:05.205Z,3.00
2023-04-29T06:34:08.235Z,1.60
2023-04-29T06:35:12.321Z,2.20
2023-04-29T06:36:18.954Z,2.20
2023-04-29T06:37:23.738Z,2.50
2023-04-29T06:39:50.687Z,2.40
2023-04-29T06:41:00.939Z,1.70
2023-04-29T06:42:22.816Z,1.90
2023-04-29T06:43:44.066Z,2.10
2023-04-29T06:45:06.425Z,2.00
2023-04-29T06:46:14.954Z,1.90
2023-04-29T06:47:25.855Z,2.00
2023-04-29T06:48:30.308Z,1.50
2023-04-29T06:49:32.592Z,2.10
2023-04-29T06:50:34.826Z,2.10
2023-04-29T06:51:37.870Z,2.40
2023-04-29T06:52:40.689Z,1.40
2023-04-29T06:53:43.021Z,2.09
2023-04-29T06:54:45.502Z,1.70
2023-04-29T06:55:47.770Z,1.90
2023-04-29T06:56:50.116Z,2.10
2023-04-29T06:57:56.188Z,2.40
2023-04-29T06:58:58.829Z,1.00
2023-04-29T07:00:01.144Z,2.00
2023-04-29T07:01:03.489Z,1.80
2023-04-29T07:02:06.118Z,0.70
2023-04-29T07:03:08.895Z,2.40
2023-04-29T07:04:11.519Z,1.70
2023-04-29T07:05:15.815Z,1.70
2023-04-29T07:06:19.063Z,0.90
2023-04-29T07:07:21.848Z,0.50
2023-04-29T07:08:24.040Z,0.70
2023-04-29T07:09:28.054Z,1.10
2023-04-29T07:10:30.354Z,0.90
2023-04-29T07:11:32.536Z,1.20
2023-04-29T07:12:34.675Z,0.70
2023-04-29T07:13:36.833Z,0.60
2023-04-29T07:14:39.331Z,0.80
2023-04-29T07:15:41.389Z,0.70
2023-04-29T07:16:43.773Z,0.20
2023-04-29T07:17:46.312Z,0.10
2023-04-29T07:18:49.178Z,1.00
2023-04-29T07:19:51.613Z,0.20
2023-04-29T07:20:54.141Z,0.60
2023-04-29T07:21:56.691Z,0.60
2023-04-29T07:22:59.110Z,0.00
2023-04-29T07:24:02.856Z,0.40
2023-04-29T07:25:05.393Z,0.20
2023-04-29T07:26:10.243Z,0.10
2023-04-29T07:27:12.681Z,0.50
2023-04-29T07:28:14.759Z,0.70
2023-04-29T07:29:17.055Z,0.20
2023-04-29T07:30:19.617Z,0.00
2023-04-29T07:31:21.880Z,0.00
2023-04-29T07:32:37.655Z,0.00
2023-04-29T07:33:41.037Z,0.20
2023-04-29T07:34:45.544Z,0.60
2023-04-29T07:35:47.770Z,0.70
2023-04-29T07:36:50.564Z,0.70
2023-04-29T07:37:53.299Z,0.10
2023-04-29T07:38:55.489Z,0.50
2023-04-29T07:39:57.768Z,0.20
2023-04-29T07:41:00.682Z,0.50
2023-04-29T07:42:03.007Z,0.10
2023-04-29T07:43:07.417Z,0.80
2023-04-29T07:44:09.512Z,0.30
2023-04-29T07:45:11.796Z,0.70
2023-04-29T07:46:14.251Z,0.50
2023-04-29T07:47:16.557Z,0.00
2023-04-29T07:48:18.741Z,0.00
2023-04-29T07:49:22.552Z,0.10
2023-04-29T07:50:24.997Z,0.40
2023-04-29T07:51:28.202Z,0.50
2023-04-29T07:52:30.440Z,0.10
2023-04-29T07:53:33.083Z,0.10
2023-04-29T07:54:36.154Z,0.00
2023-04-29T07:55:38.382Z,0.70
2023-04-29T07:56:41.048Z,0.60
2023-04-29T07:57:43.170Z,0.70
2023-04-29T07:58:45.623Z,0.70
2023-04-29T07:59:52.844Z,1.10
2023-04-29T08:00:56.121Z,0.80
2023-04-29T08:01:59.176Z,1.10
2023-04-29T08:03:01.717Z,0.70
2023-04-29T08:04:04.037Z,0.70
2023-04-29T08:05:09.106Z,1.00
2023-04-29T08:06:12.297Z,0.70
2023-04-29T08:07:16.747Z,0.90
2023-04-29T08:08:18.985Z,0.30
2023-04-29T08:09:21.305Z,0.70
2023-04-29T08:10:23.972Z,1.10
2023-04-29T08:11:26.938Z,1.00
2023-04-29T08:12:29.940Z,0.80
2023-04-29T08:13:33.354Z,1.20
2023-04-29T08:14:38.601Z,1.50
2023-04-29T08:15:40.769Z,1.00
2023-04-29T08:16:43.077Z,0.70
2023-04-29T08:17:45.594Z,1.00
2023-04-29T08:18:52.986Z,1.40
2023-04-29T08:19:55.312Z,0.60
2023-04-29T08:20:59.947Z,1.00
2023-04-29T08:22:03.316Z,0.70
2023-04-29T08:23:05.796Z,1.40
2023-04-29T08:24:11.325Z,1.20
2023-04-29T08:25:13.413Z,0.80
2023-04-29T08:26:15.818Z,0.80
2023-04-29T08:27:19.122Z,1.20
2023-04-29T08:28:22.025Z,1.50
2023-04-29T08:30:38.873Z,1.40
2023-04-29T08:31:42.797Z,1.90
2023-04-29T08:32:44.986Z,0.80
2023-04-29T08:33:48.034Z,1.40
2023-04-29T08:34:50.305Z,0.90
2023-04-29T08:35:59.743Z,0.70
2023-04-29T08:37:03.070Z,0.80
2023-04-29T08:38:05.969Z,0.70
2023-04-29T08:39:08.997Z,0.64
2023-04-29T08:40:13.376Z,0.20
2023-04-29T08:41:19.750Z,1.00
2023-04-29T08:43:36.512Z,1.30
2023-04-29T08:44:40.755Z,0.50
2023-04-29T08:45:44.030Z,1.00
2023-04-29T08:46:47.364Z,0.80
2023-04-29T08:47:50.436Z,0.30
2023-04-29T08:48:55.931Z,0.70
2023-04-29T08:51:19.248Z,0.50
2023-04-29T08:52:21.236Z,0.50
2023-04-29T08:53:24.008Z,0.50
2023-04-29T08:54:27.058Z,0.00
2023-04-29T08:55:29.470Z,0.50
2023-04-29T08:57:50.105Z,0.50
2023-04-29T08:58:54.502Z,0.70
2023-04-29T08:59:59.110Z,0.40
2023-04-29T09:01:01.845Z,0.20
2023-04-29T09:02:06.007Z,0.70
2023-04-29T09:03:14.812Z,0.50
2023-04-29T09:05:08.606Z,0.50
2023-04-29T09:06:10.996Z,0.00
2023-04-29T09:07:16.188Z,0.00
2023-04-29T09:08:18.798Z,0.30
2023-04-29T09:09:21.124Z,0.00
2023-04-29T09:10:24.285Z,0.00
2023-04-29T09:11:27.549Z,0.40
2023-04-29T09:12:30.407Z,0.50
2023-04-29T09:13:32.705Z,0.45
2023-04-29T09:14:38.035Z,1.00
2023-04-29T09:15:40.092Z,0.40
2023-04-29T09:16:42.318Z,0.40
2023-04-29T09:17:49.062Z,0.40
2023-04-29T09:18:54.344Z,0.00
2023-04-29T09:19:58.711Z,0.50
2023-04-29T09:21:23.979Z,0.30
2023-04-29T09:23:46.118Z,0.80
2023-04-29T09:24:50.688Z,0.60
2023-04-29T09:25:56.795Z,0.70
2023-04-29T09:27:01.019Z,0.50
2023-04-29T09:28:15.127Z,0.00
2023-04-29T09:29:17.758Z,0.70
2023-04-29T09:30:20.530Z,0.20
2023-04-29T09:31:28.861Z,0.45
2023-04-29T09:32:31.464Z,0.40
2023-04-29T09:33:52.961Z,0.60
2023-04-29T09:34:59.255Z,0.80
2023-04-29T09:36:01.664Z,1.40
2023-04-29T09:37:05.066Z,0.70
2023-04-29T09:38:12.295Z,1.20
2023-04-29T09:39:18.547Z,0.50
2023-04-29T09:41:56.591Z,0.50
2023-04-29T09:43:01.170Z,0.70
2023-04-29T09:44:06.775Z,0.70
2023-04-29T09:45:09.940Z,0.70
2023-04-29T09:46:16.098Z,1.20
2023-04-29T09:47:23.067Z,1.00
2023-04-29T09:48:32.212Z,0.40
2023-04-29T09:49:40.607Z,0.70
2023-04-29T09:50:44.155Z,0.70
2023-04-29T09:51:54.732Z,0.70
2023-04-29T09:53:00.716Z,0.50
2023-04-29T09:54:11.109Z,1.00
2023-04-29T09:55:15.895Z,0.40
2023-04-29T09:56:22.411Z,0.70
2023-04-29T09:57:26.473Z,1.00
2023-04-29T09:58:32.528Z,0.60
2023-04-29T09:59:37.794Z,0.40
2023-04-29T10:00:42.444Z,0.40
2023-04-29T10:01:49.265Z,0.45
2023-04-29T10:02:54.077Z,0.70
2023-04-29T10:03:58.905Z,0.70
2023-04-29T10:06:24.320Z,0.80
2023-04-29T10:08:49.243Z,0.80
2023-04-29T10:09:55.931Z,0.40
2023-04-29T10:11:02.629Z,0.60
2023-04-29T10:12:06.682Z,0.70
2023-04-29T10:13:10.184Z,0.70
2023-04-29T10:15:38.587Z,0.50
2023-04-29T10:17:05.902Z,0.40
2023-04-29T10:19:39.872Z,1.50
2023-04-29T10:20:46.756Z,0.70
2023-04-29T10:21:51.055Z,0.70
2023-04-29T10:22:56.208Z,0.60
2023-04-29T10:24:02.995Z,0.80
2023-04-29T10:25:15.948Z,1.20
2023-04-29T10:26:20.851Z,0.80
2023-04-29T10:27:25.532Z,0.80
2023-04-29T10:28:34.811Z,1.00
2023-04-29T10:29:37.974Z,0.70
2023-04-29T10:30:47.099Z,0.70
2023-04-29T10:31:52.373Z,0.30
2023-04-29T10:32:56.919Z,0.70
2023-04-29T10:34:01.441Z,0.50
2023-04-29T10:35:11.215Z,0.70
2023-04-29T10:36:17.788Z,0.90
2023-04-29T10:37:20.227Z,0.73
2023-04-29T10:38:33.872Z,0.50
2023-04-29T10:40:14.990Z,0.50
2023-04-29T10:42:57.190Z,0.90
2023-04-29T10:44:04.150Z,0.70
2023-04-29T10:45:28.794Z,0.30
2023-04-29T10:46:31.148Z,0.90
2023-04-29T10:47:33.557Z,0.50
2023-04-29T10:48:36.833Z,0.60
2023-04-29T10:49:39.026Z,0.36
2023-04-29T10:52:03.675Z,1.20
2023-04-29T10:53:06.386Z,0.80
2023-04-29T10:54:11.803Z,1.09
2023-04-29T10:55:14.571Z,0.70
2023-04-29T10:58:53.076Z,1.00
2023-04-29T10:59:55.241Z,0.60
2023-04-29T11:02:09.544Z,1.20
2023-04-29T11:03:14.257Z,1.00
2023-04-29T11:04:18.434Z,0.70
2023-04-29T11:05:31.743Z,0.90
2023-04-29T11:06:38.757Z,0.70
2023-04-29T11:07:41.095Z,0.50
2023-04-29T11:08:43.177Z,0.70
2023-04-29T11:09:48.882Z,0.70
2023-04-29T11:10:56.100Z,0.70
2023-04-29T11:12:00.915Z,0.90
2023-04-29T11:13:28.844Z,1.00
2023-04-29T11:14:37.719Z,0.70
2023-04-29T11:15:41.018Z,0.80
2023-04-29T11:18:10.618Z,0.70
2023-04-29T11:19:16.232Z,0.70
2023-04-29T11:20:18.548Z,0.70
2023-04-29T11:21:22.123Z,0.70
2023-04-29T11:22:28.016Z,0.90
2023-04-29T11:23:31.716Z,0.20
2023-04-29T11:24:35.743Z,0.70
2023-04-29T11:25:39.608Z,0.50
2023-04-29T11:26:46.535Z,0.70
2023-04-29T11:27:49.119Z,0.50
2023-04-29T11:28:51.459Z,0.70
2023-04-29T11:29:55.547Z,0.90
2023-04-29T11:32:13.851Z,0.50
2023-04-29T11:33:16.406Z,1.00
2023-04-29T11:34:22.191Z,0.50
2023-04-29T11:35:24.861Z,0.70
2023-04-29T11:36:29.084Z,1.40
2023-04-29T11:37:33.178Z,0.50
2023-04-29T11:38:39.049Z,0.70
2023-04-29T11:39:41.334Z,0.70
2023-04-29T11:40:50.459Z,0.70
2023-04-29T11:43:19.410Z,0.80
2023-04-29T11:44:21.736Z,0.30
2023-04-29T11:45:23.952Z,0.60
2023-04-29T11:46:26.855Z,1.70
2023-04-29T11:47:30.555Z,0.64
2023-04-29T11:48:32.883Z,1.10
2023-04-29T11:49:35.488Z,0.40
2023-04-29T11:50:37.687Z,0.70
2023-04-29T11:51:40.236Z,0.20
2023-04-29T11:52:42.438Z,0.90
2023-04-29T11:53:45.271Z,0.70
2023-04-29T11:54:47.588Z,0.73
2023-04-29T11:55:50.429Z,0.70
2023-04-29T11:56:54.236Z,0.60
2023-04-29T11:57:56.781Z,0.50
2023-04-29T11:58:58.725Z,0.30
2023-04-29T12:00:01.013Z,0.60
2023-04-29T12:01:04.826Z,0.90
2023-04-29T12:02:12.378Z,0.30
2023-04-29T12:03:19.411Z,0.70
2023-04-29T12:04:22.526Z,0.70
2023-04-29T12:05:26.728Z,0.90
2023-04-29T12:06:29.723Z,1.00
2023-04-29T12:07:31.941Z,0.50
2023-04-29T12:08:34.551Z,0.70
2023-04-29T12:09:44.168Z,0.80
2023-04-29T12:10:50.076Z,0.70
2023-04-29T12:11:52.656Z,0.80
2023-04-29T12:12:54.847Z,0.70
2023-04-29T12:13:57.327Z,1.10
2023-04-29T12:14:59.494Z,0.60
2023-04-29T12:16:03.145Z,0.70
2023-04-29T12:17:05.534Z,1.80
2023-04-29T12:18:08.689Z,1.00
2023-04-29T12:19:11.608Z,1.10
2023-04-29T12:20:15.297Z,0.73
2023-04-29T12:21:17.485Z,0.80
2023-04-29T12:22:20.050Z,0.40
2023-04-29T12:23:24.247Z,0.20
2023-04-29T12:24:26.457Z,0.70
2023-04-29T12:25:28.672Z,0.70
2023-04-29T12:26:31.346Z,1.00
2023-04-29T12:27:37.665Z,0.40
2023-04-29T12:28:59.396Z,0.40
2023-04-29T12:30:32.557Z,0.50
2023-04-29T12:31:50.387Z,0.80
2023-04-29T12:33:17.331Z,1.10
2023-04-29T12:34:29.016Z,1.30
2023-04-29T12:35:31.299Z,1.20
2023-04-29T12:36:34.474Z,0.40
2023-04-29T12:37:37.272Z,0.90
2023-04-29T12:38:39.639Z,0.82
2023-04-29T12:39:41.785Z,0.40
2023-04-29T12:40:49.061Z,0.70
2023-04-29T12:41:59.905Z,1.00
2023-04-29T12:43:10.122Z,0.70
2023-04-29T12:44:12.508Z,1.40
2023-04-29T12:45:31.389Z,1.00
2023-04-29T12:46:36.606Z,1.20
2023-04-29T12:47:38.944Z,1.30
2023-04-29T12:48:41.727Z,0.70
2023-04-29T12:49:45.619Z,0.90
2023-04-29T12:50:51.191Z,1.10
2023-04-29T12:51:53.408Z,0.70
2023-04-29T12:52:55.489Z,0.70
2023-04-29T12:54:00.250Z,0.60
2023-04-29T12:55:02.499Z,0.90
2023-04-29T12:56:05.691Z,0.80
2023-04-29T12:57:07.854Z,0.90
2023-04-29T12:58:10.038Z,1.50
2023-04-29T12:59:12.420Z,0.90
2023-04-29T13:00:14.744Z,1.90
2023-04-29T13:01:18.640Z,1.50
2023-04-29T13:02:21.503Z,1.30
2023-04-29T13:03:23.903Z,1.60
2023-04-29T13:04:26.271Z,1.80
2023-04-29T13:05:29.079Z,1.40
2023-04-29T13:06:32.641Z,2.18
2023-04-29T13:07:36.971Z,1.10
2023-04-29T13:08:39.965Z,0.90
2023-04-29T13:09:42.019Z,1.70
2023-04-29T13:10:44.268Z,1.30
2023-04-29T13:11:46.393Z,1.30
2023-04-29T13:12:48.564Z,0.70
2023-04-29T13:13:50.651Z,0.80
2023-04-29T13:14:54.614Z,0.80
2023-04-29T13:15:57.322Z,1.00
2023-04-29T13:16:59.750Z,0.70
2023-04-29T13:18:03.406Z,1.10
2023-04-29T13:20:15.276Z,1.00
2023-04-29T13:21:17.680Z,1.36
2023-04-29T13:22:19.756Z,0.90
2023-04-29T13:23:21.938Z,0.80
2023-04-29T13:24:24.190Z,1.20
2023-04-29T13:25:26.944Z,0.60
2023-04-29T13:26:29.489Z,0.80
2023-04-29T13:27:32.124Z,1.55
2023-04-29T13:28:34.586Z,1.20
2023-04-29T13:29:37.464Z,1.50
2023-04-29T13:30:41.660Z,1.30
2023-04-29T13:31:44.566Z,1.60
2023-04-29T13:32:54.026Z,1.70
2023-04-29T13:34:23.326Z,2.10
2023-04-29T13:35:26.346Z,1.00
2023-04-29T13:36:28.842Z,1.30
2023-04-29T13:38:55.651Z,2.70
2023-04-29T13:39:57.619Z,3.00
2023-04-29T13:41:00.376Z,7.80
2023-04-29T13:42:03.308Z,20.80
2023-04-29T13:43:07.252Z,33.36
2023-04-29T13:44:23.673Z,34.50
2023-04-29T13:45:16.775Z,31.70
2023-04-29T13:46:22.823Z,30.20
2023-04-29T13:47:31.312Z,27.40
2023-04-29T13:49:11.409Z,25.50
2023-04-29T13:51:14.016Z,19.90
2023-04-29T13:52:26.263Z,18.10
2023-04-29T13:53:30.532Z,17.50
2023-04-29T13:54:48.176Z,17.40
2023-04-29T13:55:58.712Z,16.10
2023-04-29T13:58:02.984Z,12.90
2023-04-29T13:59:44.377Z,12.10
2023-04-29T14:02:21.697Z,12.70
2023-04-29T14:03:51.331Z,11.90
2023-04-29T14:04:54.669Z,9.90
2023-04-29T14:05:58.304Z,10.90
2023-04-29T14:07:00.879Z,9.50
2023-04-29T14:08:04.017Z,9.90
2023-04-29T14:09:06.357Z,8.10
2023-04-29T14:10:09.103Z,8.20
2023-04-29T14:11:11.578Z,9.10
2023-04-29T14:12:14.027Z,7.80
2023-04-29T14:13:16.325Z,8.10
2023-04-29T14:14:18.840Z,6.90
2023-04-29T14:15:22.887Z,8.30
2023-04-29T14:16:25.491Z,8.20
2023-04-29T14:17:28.156Z,10.40
2023-04-29T14:18:30.449Z,10.70
2023-04-29T14:19:32.632Z,9.90
2023-04-29T14:20:34.901Z,11.60
2023-04-29T14:21:39.241Z,9.40
2023-04-29T14:22:41.562Z,8.70
2023-04-29T14:23:43.930Z,7.70
2023-04-29T14:26:28.230Z,8.10
2023-04-29T14:27:27.126Z,9.60
2023-04-29T14:28:29.680Z,8.50
2023-04-29T14:29:34.001Z,7.30
2023-04-29T14:30:36.691Z,8.70
2023-04-29T14:31:38.932Z,8.40
2023-04-29T14:32:42.045Z,9.90
2023-04-29T14:33:44.221Z,10.00
2023-04-29T14:34:47.866Z,10.80
2023-04-29T14:35:49.855Z,12.10
2023-04-29T14:36:52.142Z,11.40
2023-04-29T14:37:54.218Z,8.80
2023-04-29T14:38:56.833Z,9.50
2023-04-29T14:40:00.154Z,8.00
2023-04-29T14:41:04.032Z,7.50
2023-04-29T14:42:12.451Z,7.30
2023-04-29T14:43:15.810Z,7.40
2023-04-29T14:44:19.798Z,7.90
2023-04-29T14:45:21.963Z,7.60
2023-04-29T14:47:34.351Z,9.20
2023-04-29T14:48:39.523Z,7.70
2023-04-29T14:49:42.200Z,7.90
2023-04-29T14:50:44.436Z,7.80
2023-04-29T14:51:46.799Z,9.00
2023-04-29T14:52:48.889Z,7.80
2023-04-29T14:53:56.392Z,8.20
2023-04-29T14:54:58.996Z,9.80
2023-04-29T14:56:01.713Z,7.60
2023-04-29T14:57:04.861Z,7.64
2023-04-29T14:58:07.613Z,7.30
2023-04-29T14:59:09.941Z,7.27
2023-04-29T15:00:13.875Z,5.80
2023-04-29T15:01:18.749Z,6.80
2023-04-29T15:02:21.737Z,7.00
2023-04-29T15:03:23.728Z,6.40
2023-04-29T15:04:25.980Z,6.60
2023-04-29T15:05:28.032Z,7.44
2023-04-29T15:06:31.647Z,8.90
2023-04-29T15:07:34.105Z,8.60
2023-04-29T15:08:36.865Z,7.40
2023-04-29T15:09:39.617Z,6.70
2023-04-29T15:10:42.960Z,6.60